Time;durP1;ratioP1;P1;durP2;ratioP2;P2;SDS_P1;SDS_P2;PMS_P1;PMS_P2;Temp;Humidity;BMP_temperature;BMP_pressure;BME280_temperature;BME280_humidity;BME280_pressure;Samples;Min_cycle;Max_cycle;Signal;HPM_P1;HPM_P2
2023/07/18 00:00:25;;;;;;;29.90;12.20;;;;;;;17.31;100.00;100961.52;106218;1292;58599;-81
2023/07/18 00:02:51;;;;;;;28.10;11.10;;;;;;;17.29;100.00;100962.33;106316;1292;58626;-81
2023/07/18 00:05:17;;;;;;;32.80;12.30;;;;;;;17.28;100.00;100956.15;106243;1292;59613;-80
2023/07/18 00:07:44;;;;;;;34.20;13.50;;;;;;;17.26;100.00;100955.67;106271;1292;58302;-81
2023/07/18 00:10:11;;;;;;;27.80;11.60;;;;;;;17.25;100.00;100952.64;106208;1291;58478;-81
2023/07/18 00:12:40;;;;;;;28.70;11.20;;;;;;;17.23;100.00;100950.84;106265;1292;58437;-81
2023/07/18 00:15:07;;;;;;;28.10;10.70;;;;;;;17.18;100.00;100946.63;106272;1291;60034;-81
2023/07/18 00:17:33;;;;;;;23.40;11.30;;;;;;;17.14;100.00;100943.59;106291;1292;74574;-81
2023/07/18 00:20:09;;;;;;;29.50;11.10;;;;;;;17.11;100.00;100942.86;106180;1292;58556;-81
2023/07/18 00:22:35;;;;;;;32.90;13.00;;;;;;;17.06;100.00;100940.77;106226;1291;73074;-81
2023/07/18 00:25:01;;;;;;;33.60;13.20;;;;;;;17.10;100.00;100941.91;106208;1291;58478;-81
2023/07/18 00:27:28;;;;;;;27.80;11.50;;;;;;;17.13;100.00;100936.91;106144;1292;58274;-81
2023/07/18 00:29:55;;;;;;;32.30;13.00;;;;;;;17.14;100.00;100934.77;106246;1292;58355;-81
2023/07/18 00:32:22;;;;;;;31.70;11.50;;;;;;;17.14;100.00;100931.45;106264;1292;58663;-81
2023/07/18 00:34:49;;;;;;;25.20;10.20;;;;;;;17.13;100.00;100927.98;105986;1294;72602;-81
2023/07/18 00:37:15;;;;;;;29.20;10.60;;;;;;;17.11;100.00;100927.52;106242;1291;62855;-81
2023/07/18 00:39:41;;;;;;;24.70;10.10;;;;;;;17.13;100.00;100925.21;106273;1291;58221;-82
2023/07/18 00:42:07;;;;;;;19.70;9.10;;;;;;;17.14;100.00;100925.94;106149;1292;58230;-81
2023/07/18 00:44:33;;;;;;;24.00;9.70;;;;;;;17.13;100.00;100921.66;106264;1291;58344;-81
2023/07/18 00:46:58;;;;;;;21.90;9.90;;;;;;;17.12;100.00;100925.70;106219;1292;58484;-81
2023/07/18 00:49:25;;;;;;;22.50;10.40;;;;;;;17.13;100.00;100919.58;106272;1292;58300;-81
2023/07/18 00:51:51;;;;;;;26.00;10.00;;;;;;;17.11;100.00;100920.60;106269;1291;74590;-81
2023/07/18 00:54:17;;;;;;;24.10;8.90;;;;;;;17.08;100.00;100919.99;106090;1293;58488;-81
2023/07/18 00:56:43;;;;;;;19.80;9.50;;;;;;;17.01;100.00;100921.88;106255;1292;58415;-81
2023/07/18 00:59:10;;;;;;;22.10;9.40;;;;;;;16.99;100.00;100923.59;106140;1292;58382;-81
2023/07/18 01:01:36;;;;;;;22.40;9.60;;;;;;;16.98;100.00;100923.73;106252;1291;58565;-81
2023/07/18 01:04:02;;;;;;;22.40;9.70;;;;;;;16.95;100.00;100921.04;106309;1291;59096;-81
2023/07/18 01:06:28;;;;;;;20.20;10.20;;;;;;;16.87;100.00;100921.23;106275;1292;58376;-81
2023/07/18 01:08:54;;;;;;;22.60;10.70;;;;;;;16.82;100.00;100920.42;106227;1291;58364;-81
2023/07/18 01:11:21;;;;;;;22.50;10.20;;;;;;;16.82;100.00;100918.73;106287;1292;58196;-81
2023/07/18 01:13:47;;;;;;;22.30;9.70;;;;;;;16.86;100.00;100919.44;106063;1292;58541;-81
2023/07/18 01:16:13;;;;;;;20.40;8.50;;;;;;;16.84;100.00;100917.98;106312;1292;59255;-81
2023/07/18 01:18:40;;;;;;;24.80;9.20;;;;;;;16.80;100.00;100918.38;106292;1291;72625;-81
2023/07/18 01:21:09;;;;;;;16.20;8.30;;;;;;;16.83;100.00;100916.60;106242;1292;61771;-81
2023/07/18 01:23:34;;;;;;;21.40;7.90;;;;;;;16.85;100.00;100922.79;106266;1291;59920;-81
2023/07/18 01:26:00;;;;;;;23.10;8.60;;;;;;;16.83;100.00;100922.27;106284;1292;58289;-81
2023/07/18 01:28:25;;;;;;;19.70;9.40;;;;;;;16.85;100.00;100919.35;106269;1291;58384;-81
2023/07/18 01:30:51;;;;;;;25.50;9.20;;;;;;;16.88;100.00;100919.14;106250;1292;58722;-81
2023/07/18 01:33:16;;;;;;;22.10;8.80;;;;;;;16.93;100.00;100916.73;106294;1291;58196;-81
2023/07/18 01:35:42;;;;;;;23.00;8.90;;;;;;;16.99;100.00;100914.67;106246;1292;59088;-81
2023/07/18 01:38:07;;;;;;;16.20;8.40;;;;;;;17.00;100.00;100915.91;106277;1292;58254;-81
2023/07/18 01:40:33;;;;;;;20.30;8.70;;;;;;;17.01;100.00;100920.80;106150;1291;58331;-81
2023/07/18 01:42:58;;;;;;;17.60;9.70;;;;;;;17.03;100.00;100922.13;106233;1291;58484;-81
2023/07/18 01:45:27;;;;;;;19.00;8.60;;;;;;;17.04;100.00;100916.45;106232;1292;58318;-81
2023/07/18 01:47:55;;;;;;;13.70;8.40;;;;;;;17.06;100.00;100915.23;106303;1292;74401;-81
2023/07/18 01:50:20;;;;;;;18.20;9.00;;;;;;;17.08;100.00;100913.62;106302;1292;73049;-82
2023/07/18 01:52:49;;;;;;;22.40;8.50;;;;;;;17.07;100.00;100908.84;106307;1292;58283;-80
2023/07/18 01:55:15;;;;;;;15.70;8.40;;;;;;;17.03;100.00;100908.08;106266;1292;59924;-81
2023/07/18 01:57:40;;;;;;;16.90;7.90;;;;;;;16.99;100.00;100909.05;106273;1292;58256;-81
2023/07/18 02:00:11;;;;;;;14.90;8.00;;;;;;;17.02;100.00;100907.06;106294;1292;58455;-81
2023/07/18 02:02:40;;;;;;;16.90;8.30;;;;;;;17.05;100.00;100903.80;106227;1292;74071;-81
2023/07/18 02:05:07;;;;;;;20.20;8.50;;;;;;;17.06;100.00;100899.01;106084;1292;63124;-81
2023/07/18 02:07:33;;;;;;;17.90;8.80;;;;;;;17.03;100.00;100895.23;106166;1293;60913;-80
2023/07/18 02:10:00;;;;;;;21.90;9.30;;;;;;;17.02;100.00;100897.52;106105;1292;58244;-81
2023/07/18 02:12:25;;;;;;;19.10;8.60;;;;;;;17.02;100.00;100893.55;105921;1293;58605;-80
2023/07/18 02:14:51;;;;;;;24.10;8.70;;;;;;;17.06;100.00;100890.39;106143;1293;58338;-81
2023/07/18 02:17:17;;;;;;;19.10;9.10;;;;;;;17.07;100.00;100896.16;106116;1292;58279;-81
2023/07/18 02:19:42;;;;;;;17.20;8.50;;;;;;;17.10;100.00;100894.30;105921;1293;58285;-81
2023/07/18 02:22:11;;;;;;;17.70;9.00;;;;;;;17.20;100.00;100896.16;106280;1292;58321;-82
2023/07/18 02:24:37;;;;;;;18.00;8.70;;;;;;;17.23;100.00;100891.48;106243;1292;72458;-81
2023/07/18 02:27:04;;;;;;;17.20;9.50;;;;;;;17.26;100.00;100885.17;106257;1292;62760;-80
2023/07/18 02:29:30;;;;;;;19.80;9.20;;;;;;;17.31;100.00;100885.20;106246;1292;61039;-81
2023/07/18 02:31:56;;;;;;;17.40;8.80;;;;;;;17.34;100.00;100888.27;106234;1292;58298;-81
2023/07/18 02:34:22;;;;;;;19.70;7.90;;;;;;;17.36;100.00;100883.65;106224;1293;58915;-82
2023/07/18 02:36:48;;;;;;;18.30;8.50;;;;;;;17.39;100.00;100882.83;106188;1292;58636;-81
2023/07/18 02:39:15;;;;;;;13.00;8.30;;;;;;;17.42;100.00;100879.23;106220;1292;58411;-81
2023/07/18 02:41:40;;;;;;;18.50;9.10;;;;;;;17.47;100.00;100880.89;105845;1298;58507;-82
2023/07/18 02:47:42;;;;;;;17.00;8.40;;;;;;;17.63;100.00;100880.08;103043;1294;600439;-81
2023/07/18 02:50:08;;;;;;;17.10;8.10;;;;;;;17.73;100.00;100880.99;103160;1297;60403;-81
2023/07/18 02:52:38;;;;;;;17.10;8.50;;;;;;;17.87;100.00;100879.40;103146;1291;60439;-82
2023/07/18 02:55:03;;;;;;;16.40;7.70;;;;;;;18.03;100.00;100876.97;102959;1298;73498;-81
2023/07/18 02:57:29;;;;;;;20.70;8.90;;;;;;;18.15;100.00;100874.77;102953;1292;60445;-80
2023/07/18 02:59:55;;;;;;;19.80;8.30;;;;;;;18.24;100.00;100875.83;102932;1291;60399;-81
2023/07/18 03:02:20;;;;;;;16.10;9.10;;;;;;;18.32;100.00;100875.55;103081;1294;327384;-81
2023/07/18 03:04:47;;;;;;;18.80;8.90;;;;;;;18.40;100.00;100872.20;103513;1294;60388;-80
2023/07/18 03:07:29;;;;;;;20.60;9.00;;;;;;;18.57;100.00;100866.59;102893;1292;599893;-80
2023/07/18 03:09:55;;;;;;;20.30;9.20;;;;;;;18.67;100.00;100869.73;102983;1295;60422;-81
2023/07/18 03:12:21;;;;;;;16.40;8.20;;;;;;;18.79;100.00;100869.80;102855;1299;60886;-82
2023/07/18 03:15:09;;;;;;;19.20;8.20;;;;;;;18.88;100.00;100865.16;102746;1292;600920;-81
2023/07/18 03:17:36;;;;;;;19.40;9.20;;;;;;;18.98;100.00;100868.01;103103;1295;61916;-80
2023/07/18 03:20:11;;;;;;;15.70;8.10;;;;;;;19.07;100.00;100862.71;102824;1294;60393;-81
2023/07/18 03:22:53;;;;;;;18.70;7.50;;;;;;;19.34;100.00;100861.98;103090;1290;601190;-81
2023/07/18 03:25:22;;;;;;;25.50;7.60;;;;;;;19.68;100.00;100861.11;103319;1292;60412;-81
2023/07/18 03:27:47;;;;;;;25.30;7.50;;;;;;;20.15;100.00;100859.77;103594;1290;61684;-81
2023/07/18 03:33:41;;;;;;;19.30;7.00;;;;;;;21.87;100.00;100858.83;103056;1289;600926;-81
2023/07/18 03:36:07;;;;;;;12.90;6.60;;;;;;;22.56;100.00;100856.86;103137;1294;60418;-82
2023/07/18 03:38:33;;;;;;;15.20;6.40;;;;;;;23.24;100.00;100857.13;103245;1294;60848;-81
2023/07/18 03:40:58;;;;;;;13.20;6.20;;;;;;;23.87;100.00;100855.23;103307;1292;60354;-82
2023/07/18 03:43:24;;;;;;;11.70;6.30;;;;;;;24.39;100.00;100853.74;103148;1294;60405;-82
2023/07/18 03:45:51;;;;;;;16.20;6.60;;;;;;;25.00;100.00;100855.48;102924;1292;59430;-82
2023/07/18 03:48:20;;;;;;;14.50;6.10;;;;;;;25.63;100.00;100852.92;102785;1288;386264;-81
2023/07/18 03:50:46;;;;;;;10.70;5.40;;;;;;;26.23;100.00;100851.53;103261;1294;73337;-82
2023/07/18 03:53:11;;;;;;;10.60;5.50;;;;;;;26.68;100.00;100853.09;103202;1294;60354;-82
2023/07/18 03:55:37;;;;;;;24.10;7.40;;;;;;;27.19;100.00;100849.55;103401;1291;60403;-82
2023/07/18 04:01:26;;;;;;;13.30;6.60;;;;;;;28.12;100.00;100845.52;103466;1286;600119;-81
2023/07/18 04:03:51;;;;;;;12.70;5.80;;;;;;;28.45;97.89;100846.09;102893;1294;60428;-81
2023/07/18 04:09:41;;;;;;;11.00;6.10;;;;;;;28.98;90.97;100844.14;102830;1292;602387;-82
2023/07/18 04:12:07;;;;;;;13.30;6.70;;;;;;;29.46;88.97;100848.38;103094;1290;60380;-82
2023/07/18 04:14:35;;;;;;;14.40;6.20;;;;;;;29.94;84.46;100849.59;103410;1297;60454;-82
2023/07/18 04:17:02;;;;;;;16.80;5.90;;;;;;;30.35;80.62;100845.27;103408;1289;60364;-82
2023/07/18 04:19:29;;;;;;;13.00;6.30;;;;;;;30.64;77.37;100845.88;103420;1289;60506;-82
2023/07/18 04:21:55;;;;;;;10.10;5.60;;;;;;;30.83;74.35;100842.80;103506;1290;74187;-82
2023/07/18 04:24:21;;;;;;;12.50;6.20;;;;;;;31.17;73.32;100842.66;103493;1289;60819;-82
2023/07/18 04:26:47;;;;;;;16.70;6.40;;;;;;;31.67;72.57;100840.50;103535;1289;61108;-83
2023/07/18 04:29:13;;;;;;;18.80;6.40;;;;;;;32.24;69.36;100838.23;103619;1288;60302;-82
2023/07/18 04:31:38;;;;;;;14.30;6.50;;;;;;;32.53;64.72;100837.11;103466;1288;60481;-83
2023/07/18 04:34:04;;;;;;;12.10;6.40;;;;;;;32.60;62.60;100840.59;103557;1288;60552;-82
2023/07/18 04:36:29;;;;;;;12.40;6.10;;;;;;;32.83;61.08;100838.35;103639;1291;60847;-83
2023/07/18 04:38:55;;;;;;;10.00;6.10;;;;;;;33.14;59.64;100837.15;103238;1289;60405;-81
2023/07/18 04:41:20;;;;;;;14.00;7.20;;;;;;;33.59;58.80;100837.08;103466;1288;60546;-82
2023/07/18 04:43:46;;;;;;;13.30;6.30;;;;;;;33.93;57.75;100841.01;103645;1289;60388;-82
2023/07/18 04:46:11;;;;;;;17.90;6.80;;;;;;;34.18;55.20;100843.73;103586;1289;60330;-83
2023/07/18 04:48:36;;;;;;;16.90;7.10;;;;;;;34.41;54.63;100843.33;103598;1288;60444;-83
2023/07/18 04:51:03;;;;;;;11.10;5.80;;;;;;;34.59;53.29;100842.82;103628;1288;60408;-83
2023/07/18 04:53:30;;;;;;;10.10;6.70;;;;;;;34.71;52.24;100840.98;103853;1289;60374;-80
2023/07/18 04:55:56;;;;;;;14.10;6.60;;;;;;;34.88;51.33;100837.63;103648;1288;60348;-83
2023/07/18 04:58:26;;;;;;;13.10;6.30;;;;;;;35.25;50.44;100837.19;103598;1288;60296;-83
2023/07/18 05:00:54;;;;;;;13.30;6.20;;;;;;;35.65;49.92;100830.96;103531;1286;74171;-83
2023/07/18 05:03:20;;;;;;;13.20;6.40;;;;;;;36.14;48.76;100833.92;103358;1288;74722;-83
2023/07/18 05:05:46;;;;;;;20.50;7.50;;;;;;;36.71;48.72;100828.54;103494;1288;60344;-83
2023/07/18 05:08:11;;;;;;;15.80;8.20;;;;;;;37.21;46.72;100830.89;103348;1286;60404;-84
2023/07/18 05:10:37;;;;;;;21.30;9.50;;;;;;;37.34;45.35;100830.36;103437;1286;60341;-83
2023/07/18 05:13:03;;;;;;;23.40;9.70;;;;;;;37.48;43.56;100828.89;103417;1291;60345;-83
2023/07/18 05:15:28;;;;;;;34.40;15.70;;;;;;;37.93;42.57;100830.41;103246;1291;60432;-81
2023/07/18 05:17:54;;;;;;;33.80;14.80;;;;;;;38.44;40.64;100823.81;103388;1286;60436;-82
2023/07/18 05:20:20;;;;;;;33.40;14.00;;;;;;;38.69;39.51;100815.59;103403;1291;60416;-83
2023/07/18 05:22:46;;;;;;;30.40;12.50;;;;;;;39.04;38.75;100816.64;103324;1288;60319;-83
2023/07/18 05:25:13;;;;;;;35.20;12.90;;;;;;;39.37;38.50;100814.30;103362;1289;60508;-83
2023/07/18 05:27:39;;;;;;;26.80;12.40;;;;;;;39.74;37.50;100813.61;103548;1290;60324;-83
2023/07/18 05:30:10;;;;;;;25.80;11.30;;;;;;;40.00;36.91;100806.66;103546;1288;60414;-82
2023/07/18 05:32:35;;;;;;;27.70;12.10;;;;;;;40.17;37.02;100804.16;103379;1288;61669;-83
2023/07/18 05:35:01;;;;;;;24.90;11.30;;;;;;;40.41;36.12;100805.80;103256;1289;61025;-83
2023/07/18 05:37:28;;;;;;;32.30;11.70;;;;;;;40.56;35.39;100805.08;103506;1289;60387;-83
2023/07/18 05:39:54;;;;;;;24.90;11.50;;;;;;;40.82;35.78;100803.91;103483;1286;60421;-84
2023/07/18 05:42:19;;;;;;;29.30;11.50;;;;;;;41.32;35.47;100798.83;102958;1289;60549;-83
2023/07/18 05:44:45;;;;;;;24.70;10.70;;;;;;;41.58;35.18;100798.33;106674;1286;58238;-81
2023/07/18 05:47:10;;;;;;;22.70;10.90;;;;;;;41.70;33.97;100801.91;106759;1286;58195;-82
2023/07/18 05:49:36;;;;;;;20.10;10.60;;;;;;;42.00;33.30;100803.02;106646;1286;72836;-81
2023/07/18 05:52:02;;;;;;;23.30;10.60;;;;;;;42.68;32.81;100799.16;106429;1287;58229;-80
2023/07/18 05:54:30;;;;;;;21.50;10.00;;;;;;;43.07;31.39;100793.05;106658;1286;58199;-81
2023/07/18 05:56:56;;;;;;;17.40;10.30;;;;;;;43.24;30.90;100787.86;106654;1286;73893;-83
2023/07/18 05:59:21;;;;;;;21.90;10.50;;;;;;;43.41;31.56;100785.13;106429;1286;58469;-82
2023/07/18 06:01:47;;;;;;;22.50;10.40;;;;;;;43.60;30.63;100787.16;106653;1286;58605;-79
2023/07/18 06:04:15;;;;;;;22.00;9.90;;;;;;;43.93;30.43;100779.20;106338;1286;58235;-81
2023/07/18 06:06:41;;;;;;;21.70;10.70;;;;;;;44.33;29.75;100778.06;106619;1286;58081;-81
2023/07/18 06:09:07;;;;;;;15.20;8.80;;;;;;;44.71;28.12;100784.33;106454;1286;58687;-81
2023/07/18 06:11:33;;;;;;;16.20;8.70;;;;;;;44.97;27.84;100780.02;106682;1286;58115;-81
2023/07/18 06:13:59;;;;;;;15.10;9.40;;;;;;;44.86;27.34;100775.68;106645;1286;58154;-81
2023/07/18 06:16:25;;;;;;;17.30;8.60;;;;;;;44.72;27.39;100778.86;106682;1287;58087;-81
2023/07/18 06:18:50;;;;;;;13.10;7.10;;;;;;;44.56;27.45;100778.92;106423;1286;58251;-82
2023/07/18 06:21:16;;;;;;;22.70;7.60;;;;;;;44.57;27.12;100778.05;106329;1287;64378;-82
2023/07/18 06:23:41;;;;;;;17.30;8.50;;;;;;;44.71;26.68;100771.29;106644;1286;58155;-82
2023/07/18 06:26:07;;;;;;;18.80;7.70;;;;;;;44.90;26.58;100773.98;106656;1286;58037;-81
2023/07/18 06:28:32;;;;;;;13.20;6.60;;;;;;;45.19;26.24;100770.02;106648;1288;58077;-82
2023/07/18 06:30:58;;;;;;;21.90;8.10;;;;;;;45.64;25.79;100774.74;106728;1287;58147;-81
2023/07/18 06:33:24;;;;;;;16.60;8.30;;;;;;;45.99;25.67;100767.66;106504;1286;58581;-82
2023/07/18 06:35:55;;;;;;;20.50;7.40;;;;;;;46.25;25.52;100765.89;106629;1288;58169;-82
2023/07/18 06:38:21;;;;;;;20.60;8.00;;;;;;;46.53;24.91;100766.17;106639;1286;58061;-81
2023/07/18 06:40:50;;;;;;;13.30;8.00;;;;;;;46.61;23.96;100758.39;106650;1286;58074;-80
2023/07/18 06:43:16;;;;;;;14.40;7.70;;;;;;;46.40;23.40;100756.85;106667;1286;65713;-82
2023/07/18 06:45:46;;;;;;;15.90;8.00;;;;;;;46.37;24.46;100754.33;106621;1286;64691;-83
2023/07/18 06:48:13;;;;;;;11.30;7.00;;;;;;;46.68;23.92;100753.73;106586;1286;58209;-82
2023/07/18 06:50:46;;;;;;;13.10;7.30;;;;;;;46.65;24.34;100751.54;106715;1286;58044;-81
2023/07/18 06:53:12;;;;;;;10.30;7.30;;;;;;;46.73;23.95;100751.54;106617;1286;65274;-84
2023/07/18 06:55:37;;;;;;;11.10;7.60;;;;;;;46.89;23.94;100750.69;106665;1287;58534;-81
2023/07/18 06:58:03;;;;;;;14.60;8.20;;;;;;;47.15;23.34;100748.61;106558;1287;58288;-82
2023/07/18 07:00:29;;;;;;;12.50;6.90;;;;;;;47.47;23.99;100741.95;106607;1286;58232;-81
2023/07/18 07:02:54;;;;;;;14.70;7.30;;;;;;;47.66;22.89;100741.01;106647;1286;58126;-82
2023/07/18 07:05:20;;;;;;;13.30;7.00;;;;;;;47.69;22.28;100743.00;106731;1286;58382;-81
2023/07/18 07:07:47;;;;;;;11.70;6.90;;;;;;;47.75;21.97;100739.38;106637;1287;64857;-81
2023/07/18 07:10:12;;;;;;;11.50;6.80;;;;;;;47.69;22.24;100735.20;106628;1286;58018;-81
2023/07/18 07:12:38;;;;;;;10.40;6.90;;;;;;;47.91;22.00;100734.31;106686;1286;58082;-81
2023/07/18 07:15:04;;;;;;;17.80;8.10;;;;;;;48.23;22.29;100732.10;106667;1286;58171;-82
2023/07/18 07:17:30;;;;;;;12.80;7.20;;;;;;;48.25;21.69;100727.27;106688;1286;58184;-82
2023/07/18 07:19:55;;;;;;;13.40;7.90;;;;;;;48.42;21.14;100727.56;106676;1286;59265;-83
2023/07/18 07:22:21;;;;;;;12.20;6.70;;;;;;;48.35;21.36;100726.84;106764;1286;58194;-82
2023/07/18 07:24:47;;;;;;;16.40;7.30;;;;;;;48.26;20.90;100725.86;106686;1286;65137;-82
2023/07/18 07:27:13;;;;;;;15.70;7.40;;;;;;;48.04;20.69;100724.34;106484;1286;58601;-84
2023/07/18 07:29:40;;;;;;;13.60;7.70;;;;;;;48.14;21.00;100728.73;106552;1286;58236;-82
2023/07/18 07:32:07;;;;;;;12.30;7.50;;;;;;;48.18;20.83;100723.83;106353;1286;58578;-82
2023/07/18 07:34:32;;;;;;;10.00;6.90;;;;;;;48.15;20.90;100720.55;106652;1286;58064;-83
2023/07/18 07:36:58;;;;;;;12.90;7.20;;;;;;;48.39;20.58;100721.59;106661;1286;58044;-81
2023/07/18 07:39:23;;;;;;;15.50;7.40;;;;;;;48.52;20.68;100724.09;106661;1287;58096;-80
2023/07/18 07:41:49;;;;;;;15.50;7.90;;;;;;;48.52;20.56;100723.29;106611;1286;58177;-80
2023/07/18 07:44:14;;;;;;;11.60;8.00;;;;;;;48.70;20.94;100724.61;106713;1286;58182;-82
2023/07/18 07:46:40;;;;;;;12.10;8.00;;;;;;;48.81;20.48;100722.08;106697;1286;65523;-81
2023/07/18 07:49:06;;;;;;;10.70;8.00;;;;;;;48.73;20.08;100716.27;106656;1287;58412;-81
2023/07/18 07:51:32;;;;;;;12.10;8.50;;;;;;;48.72;20.03;100715.33;106665;1286;58137;-81
2023/07/18 07:53:58;;;;;;;15.20;8.90;;;;;;;48.67;19.91;100715.66;106626;1287;58093;-80
2023/07/18 07:56:24;;;;;;;8.40;7.20;;;;;;;48.58;20.17;100714.13;106738;1286;58394;-81
2023/07/18 07:58:50;;;;;;;12.50;8.50;;;;;;;48.80;20.06;100713.34;106397;1288;58264;-82
2023/07/18 08:01:15;;;;;;;12.10;7.20;;;;;;;48.98;19.98;100711.94;106725;1286;58172;-81
2023/07/18 08:03:41;;;;;;;12.40;7.00;;;;;;;49.08;19.92;100709.39;106672;1286;58101;-81
2023/07/18 08:06:06;;;;;;;12.00;7.10;;;;;;;48.96;19.68;100708.82;106457;1288;58234;-83
2023/07/18 08:08:32;;;;;;;10.20;7.40;;;;;;;48.73;20.05;100706.54;106843;1286;59332;-77
2023/07/18 08:10:58;;;;;;;14.90;7.10;;;;;;;48.59;19.91;100707.27;106749;1288;59953;-79
2023/07/18 08:13:23;;;;;;;12.70;7.80;;;;;;;48.47;20.05;100704.56;106721;1286;58373;-80
2023/07/18 08:15:50;;;;;;;12.80;8.10;;;;;;;48.47;19.94;100703.48;106372;1286;58285;-80
2023/07/18 08:18:16;;;;;;;12.40;8.50;;;;;;;48.37;19.98;100699.48;106628;1288;66097;-81
2023/07/18 08:20:41;;;;;;;17.70;8.40;;;;;;;48.26;19.81;100695.56;106459;1287;58370;-81
2023/07/18 08:23:07;;;;;;;13.30;8.20;;;;;;;47.82;20.35;100694.18;106634;1288;58219;-82
2023/07/18 08:25:32;;;;;;;12.10;7.70;;;;;;;47.70;20.59;100695.88;106484;1286;58699;-83
2023/07/18 08:27:58;;;;;;;12.70;8.20;;;;;;;47.84;20.66;100690.87;106792;1286;58245;-80
2023/07/18 08:30:24;;;;;;;14.60;8.10;;;;;;;47.85;20.21;100686.34;106680;1286;64791;-81
2023/07/18 08:32:49;;;;;;;14.70;8.00;;;;;;;47.38;20.42;100685.70;106661;1286;58475;-81
2023/07/18 08:35:15;;;;;;;13.50;7.60;;;;;;;47.17;20.40;100682.40;106680;1286;58156;-81
2023/07/18 08:37:40;;;;;;;14.70;7.40;;;;;;;46.99;20.80;100680.65;106669;1286;58198;-81
2023/07/18 08:40:09;;;;;;;16.40;7.90;;;;;;;47.09;20.89;100676.92;106733;1286;58250;-81
2023/07/18 08:42:36;;;;;;;19.30;8.50;;;;;;;47.40;20.92;100673.12;106661;1286;64832;-81
2023/07/18 08:45:03;;;;;;;18.40;8.00;;;;;;;47.54;20.82;100667.60;106547;1286;58281;-81
2023/07/18 08:47:29;;;;;;;14.60;8.40;;;;;;;47.35;21.26;100665.84;106676;1286;58077;-81
2023/07/18 08:49:55;;;;;;;16.30;8.40;;;;;;;47.48;21.44;100664.00;106724;1286;59621;-82
2023/07/18 08:52:21;;;;;;;13.90;7.90;;;;;;;47.49;21.17;100660.69;106696;1286;58385;-82
2023/07/18 08:54:46;;;;;;;13.50;8.40;;;;;;;47.41;21.19;100654.02;106671;1286;59271;-81
2023/07/18 08:57:12;;;;;;;16.00;7.80;;;;;;;47.13;21.48;100655.54;106689;1286;58267;-81
2023/07/18 08:59:39;;;;;;;16.10;8.20;;;;;;;46.93;21.34;100653.30;106573;1286;58298;-82
2023/07/18 09:02:05;;;;;;;13.60;8.00;;;;;;;46.94;21.40;100656.36;106689;1286;65673;-81
2023/07/18 09:04:31;;;;;;;16.80;6.90;;;;;;;46.96;21.26;100659.05;106330;1288;58349;-82
2023/07/18 09:06:59;;;;;;;13.30;6.80;;;;;;;46.92;21.29;100663.55;106651;1286;58603;-81
2023/07/18 09:09:25;;;;;;;9.10;6.50;;;;;;;46.79;21.51;100664.17;106683;1286;59077;-81
2023/07/18 09:12:01;;;;;;;12.20;6.00;;;;;;;46.77;21.20;100665.57;106688;1286;58183;-82
2023/07/18 09:14:34;;;;;;;10.90;6.70;;;;;;;46.69;21.11;100662.95;106674;1286;65718;-83
2023/07/18 09:17:03;;;;;;;15.50;7.30;;;;;;;46.78;21.55;100657.95;106668;1286;63917;-81
2023/07/18 09:19:38;;;;;;;12.80;6.10;;;;;;;47.12;21.53;100654.35;106692;1286;58853;-82
2023/07/18 09:22:08;;;;;;;9.90;6.60;;;;;;;46.95;21.42;100652.36;106689;1286;58274;-81
2023/07/18 09:24:37;;;;;;;12.00;6.20;;;;;;;46.28;21.52;100651.73;106695;1286;65249;-83
2023/07/18 09:27:24;;;;;;;11.80;5.80;;;;;;;45.59;21.81;100648.02;106684;1286;65813;-82
2023/07/18 09:29:52;;;;;;;14.90;6.70;;;;;;;44.89;22.57;100652.18;106553;1287;64829;-82
2023/07/18 09:32:23;;;;;;;10.90;6.30;;;;;;;44.70;22.86;100646.92;106340;1288;60558;-81
2023/07/18 09:34:53;;;;;;;11.20;5.90;;;;;;;44.72;22.72;100643.49;106652;1287;60572;-80
2023/07/18 09:37:18;;;;;;;17.60;5.60;;;;;;;44.07;22.93;100639.46;106709;1287;73601;-83
2023/07/18 09:39:45;;;;;;;12.20;5.20;;;;;;;43.61;23.86;100639.83;106665;1286;58299;-81
2023/07/18 09:42:12;;;;;;;10.30;5.50;;;;;;;43.42;23.92;100638.15;106538;1288;58337;-82
2023/07/18 09:44:40;;;;;;;8.60;5.10;;;;;;;43.28;24.03;100637.65;106642;1286;60212;-81
2023/07/18 09:47:09;;;;;;;13.50;5.80;;;;;;;43.26;23.79;100634.84;106501;1287;61494;-82
2023/07/18 09:49:36;;;;;;;11.60;5.30;;;;;;;43.13;23.91;100631.07;106638;1286;74533;-81
2023/07/18 09:52:04;;;;;;;10.40;5.20;;;;;;;42.86;23.69;100627.98;106679;1286;73319;-81
2023/07/18 09:54:33;;;;;;;11.00;5.50;;;;;;;42.63;24.33;100623.23;106370;1288;72789;-80
2023/07/18 09:57:04;;;;;;;9.10;5.20;;;;;;;42.46;24.01;100621.00;106587;1286;60722;-81
2023/07/18 09:59:30;;;;;;;10.00;5.50;;;;;;;42.03;24.30;100617.02;106488;1286;59338;-81
2023/07/18 10:01:56;;;;;;;12.10;5.50;;;;;;;41.87;25.09;100617.05;106685;1286;58663;-83
2023/07/18 10:04:22;;;;;;;7.00;5.10;;;;;;;41.62;25.24;100613.35;106615;1288;58304;-82
2023/07/18 10:06:49;;;;;;;11.40;5.30;;;;;;;41.39;25.14;100603.45;106664;1287;58283;-81
2023/07/18 10:09:19;;;;;;;9.50;5.00;;;;;;;41.31;25.37;100605.52;106511;1286;58281;-82
2023/07/18 10:12:14;;;;;;;9.50;5.40;;;;;;;41.33;25.98;100605.29;106494;1288;60118;-82
2023/07/18 10:14:42;;;;;;;8.20;4.60;;;;;;;41.32;25.95;100601.45;106009;1293;73589;-82
2023/07/18 10:17:07;;;;;;;9.80;5.00;;;;;;;41.32;26.53;100597.63;106027;1294;74174;-82
2023/07/18 10:19:46;;;;;;;10.20;5.40;;;;;;;41.27;26.08;100593.56;106021;1294;58515;-82
2023/07/18 10:22:12;;;;;;;14.30;5.30;;;;;;;41.25;26.16;100590.73;105926;1294;61249;-83
2023/07/18 10:24:49;;;;;;;8.20;4.70;;;;;;;41.23;26.36;100583.17;105842;1294;58636;-82
2023/07/18 10:27:14;;;;;;;11.00;5.30;;;;;;;41.23;26.37;100586.49;106000;1293;74737;-81
2023/07/18 10:29:41;;;;;;;10.00;5.00;;;;;;;41.00;26.25;100585.87;105990;1294;58339;-83
2023/07/18 10:32:12;;;;;;;13.70;5.70;;;;;;;40.96;26.53;100584.10;106006;1293;58345;-82
2023/07/18 10:34:38;;;;;;;10.90;4.70;;;;;;;40.78;26.08;100580.30;105966;1293;61298;-82
2023/07/18 10:37:10;;;;;;;10.90;5.40;;;;;;;40.51;26.74;100577.79;105933;1294;58309;-83
2023/07/18 10:39:38;;;;;;;13.20;5.40;;;;;;;40.21;26.88;100578.45;105976;1294;75113;-82
2023/07/18 10:42:07;;;;;;;12.70;5.20;;;;;;;40.03;27.16;100577.71;105973;1294;73378;-79
2023/07/18 10:44:36;;;;;;;8.30;4.80;;;;;;;39.80;27.56;100574.81;105989;1293;73657;-79
2023/07/18 10:47:14;;;;;;;8.40;4.20;;;;;;;39.63;27.56;100573.51;105992;1293;61260;-81
2023/07/18 10:49:40;;;;;;;10.70;4.90;;;;;;;39.58;27.10;100572.39;105922;1294;61127;-80
2023/07/18 10:52:06;;;;;;;11.70;5.20;;;;;;;39.52;27.55;100568.42;106448;1286;58680;-81
2023/07/18 10:54:32;;;;;;;7.90;4.80;;;;;;;39.48;27.68;100569.45;106684;1288;58388;-81
2023/07/18 10:56:57;;;;;;;8.90;4.70;;;;;;;39.50;27.69;100564.63;106653;1287;58463;-79
2023/07/18 10:59:23;;;;;;;12.40;5.20;;;;;;;39.52;27.96;100564.27;106674;1288;58922;-80
2023/07/18 11:01:48;;;;;;;11.40;5.00;;;;;;;39.58;28.57;100561.11;106710;1286;58725;-81
2023/07/18 11:04:14;;;;;;;9.10;5.20;;;;;;;39.88;28.40;100555.39;106675;1286;74322;-81
2023/07/18 11:06:49;;;;;;;11.40;5.40;;;;;;;40.09;28.61;100553.98;106655;1286;58329;-80
2023/07/18 11:09:15;;;;;;;8.50;4.90;;;;;;;40.42;27.65;100554.10;106457;1287;58876;-82
2023/07/18 11:11:41;;;;;;;10.40;5.00;;;;;;;40.55;27.52;100547.08;106646;1286;58332;-81
2023/07/18 11:14:07;;;;;;;10.00;5.00;;;;;;;40.66;27.19;100545.61;106657;1288;58480;-81
2023/07/18 11:16:36;;;;;;;10.00;5.20;;;;;;;40.70;27.73;100541.98;106519;1288;58266;-82